createdAt,value
2019-03-17T00:01:03.321Z,89.08
2019-03-17T00:03:34.872Z,89.02
2019-03-17T00:06:07.766Z,88.99
2019-03-17T00:08:37.745Z,89.00
2019-03-17T00:11:08.073Z,88.98
2019-03-17T00:13:38.677Z,88.97
2019-03-17T00:16:09.151Z,88.99
2019-03-17T00:18:39.842Z,89.00
2019-03-17T00:21:10.389Z,88.98
2019-03-17T00:23:42.019Z,88.98
2019-03-17T00:26:12.476Z,89.01
2019-03-17T00:28:44.388Z,89.07
2019-03-17T00:31:23.625Z,89.08
2019-03-17T00:33:47.423Z,89.05
2019-03-17T00:36:18.544Z,89.02
2019-03-17T00:38:48.888Z,89.01
2019-03-17T00:41:20.434Z,88.96
2019-03-17T00:43:50.996Z,88.92
2019-03-17T00:46:21.493Z,88.90
2019-03-17T00:48:51.988Z,88.87
2019-03-17T00:51:22.359Z,88.81
2019-03-17T00:53:54.546Z,88.75
2019-03-17T00:56:25.204Z,88.67
2019-03-17T00:58:56.099Z,88.58
2019-03-17T01:01:26.601Z,88.54
2019-03-17T01:03:58.425Z,88.52
2019-03-17T01:06:29.073Z,88.48
2019-03-17T01:08:59.457Z,88.46
2019-03-17T01:11:30.157Z,88.41
2019-03-17T01:14:00.835Z,88.38
2019-03-17T01:16:31.724Z,88.38
2019-03-17T01:19:02.421Z,88.36
2019-03-17T01:21:33.403Z,88.37
2019-03-17T01:24:04.775Z,88.35
2019-03-17T01:26:35.321Z,88.32
2019-03-17T01:29:05.720Z,88.31
2019-03-17T01:31:36.551Z,88.27
2019-03-17T01:34:06.890Z,88.23
2019-03-17T01:36:37.887Z,88.18
2019-03-17T01:39:08.344Z,88.13
2019-03-17T01:41:39.909Z,88.03
2019-03-17T01:44:10.462Z,87.98
2019-03-17T01:46:41.218Z,87.91
2019-03-17T01:49:11.772Z,87.84
2019-03-17T01:51:42.688Z,87.73
2019-03-17T01:54:13.535Z,87.66
2019-03-17T01:56:44.217Z,87.46
2019-03-17T01:59:14.815Z,87.18
2019-03-17T02:01:45.190Z,87.05
2019-03-17T02:04:15.511Z,86.95
2019-03-17T02:06:45.836Z,87.00
2019-03-17T02:09:16.370Z,86.75
2019-03-17T02:11:46.714Z,86.59
2019-03-17T02:14:17.067Z,86.46
2019-03-17T02:16:47.743Z,86.55
2019-03-17T02:19:18.173Z,86.64
2019-03-17T02:21:48.654Z,86.67
2019-03-17T02:24:19.090Z,86.25
2019-03-17T02:26:51.223Z,86.12
2019-03-17T02:29:21.591Z,86.03
2019-03-17T02:31:52.058Z,85.97
2019-03-17T02:34:22.520Z,85.78
2019-03-17T02:36:54.050Z,85.39
2019-03-17T02:39:26.221Z,85.28
2019-03-17T02:41:56.716Z,85.36
2019-03-17T02:44:27.233Z,85.07
2019-03-17T02:46:57.666Z,85.12
2019-03-17T02:49:28.057Z,85.11
2019-03-17T02:51:58.891Z,85.31
2019-03-17T02:54:29.459Z,85.17
2019-03-17T02:56:59.989Z,85.34
2019-03-17T02:59:30.603Z,85.50
2019-03-17T03:02:01.022Z,85.32
2019-03-17T03:04:31.534Z,84.99
2019-03-17T03:07:02.069Z,84.95
2019-03-17T03:09:35.280Z,84.33
2019-03-17T03:12:05.765Z,84.42
2019-03-17T03:14:36.404Z,84.29
2019-03-17T03:17:06.752Z,84.03
2019-03-17T03:19:37.364Z,83.99
2019-03-17T03:22:07.853Z,83.77
2019-03-17T03:24:38.310Z,83.71
2019-03-17T03:27:08.935Z,83.26
2019-03-17T03:29:39.504Z,83.56
2019-03-17T03:32:10.148Z,83.15
2019-03-17T03:34:40.789Z,82.78
2019-03-17T03:37:11.646Z,82.92
2019-03-17T03:39:42.426Z,82.51
2019-03-17T03:42:13.221Z,82.70
2019-03-17T03:44:43.757Z,82.74
2019-03-17T03:47:14.268Z,82.47
2019-03-17T03:49:44.726Z,82.55
2019-03-17T03:52:16.226Z,82.60
2019-03-17T03:54:46.557Z,82.71
2019-03-17T03:57:17.181Z,82.76
2019-03-17T03:59:47.875Z,82.90
2019-03-17T04:02:18.978Z,82.97
2019-03-17T04:04:49.377Z,82.97
2019-03-17T04:07:21.607Z,82.90
2019-03-17T04:09:51.995Z,82.75
2019-03-17T04:12:22.504Z,82.22
2019-03-17T04:14:54.263Z,81.73
2019-03-17T04:17:24.708Z,81.77
2019-03-17T04:19:55.106Z,81.46
2019-03-17T04:22:25.509Z,81.94
2019-03-17T04:24:59.651Z,81.82
2019-03-17T04:27:30.317Z,81.25
2019-03-17T04:30:01.217Z,81.41
2019-03-17T04:32:31.950Z,81.62
2019-03-17T04:35:02.654Z,81.24
2019-03-17T04:37:34.044Z,80.67
2019-03-17T04:40:06.027Z,81.58
2019-03-17T04:42:36.518Z,80.93
2019-03-17T04:45:07.946Z,81.35
2019-03-17T04:47:38.324Z,81.10
2019-03-17T04:50:09.578Z,80.85
2019-03-17T04:52:40.568Z,80.98
2019-03-17T04:55:10.979Z,80.35
2019-03-17T04:57:42.370Z,79.96
2019-03-17T05:00:13.178Z,79.40
2019-03-17T05:02:43.731Z,80.48
2019-03-17T05:05:14.361Z,80.21
2019-03-17T05:07:44.821Z,80.45
2019-03-17T05:10:15.420Z,80.55
2019-03-17T05:12:45.963Z,80.91
2019-03-17T05:15:16.521Z,81.06
2019-03-17T05:17:47.343Z,81.02
2019-03-17T05:20:17.963Z,80.55
2019-03-17T05:22:49.400Z,80.89
2019-03-17T05:25:20.107Z,81.37
2019-03-17T05:27:50.479Z,81.60
2019-03-17T05:30:20.976Z,82.08
2019-03-17T05:32:51.404Z,81.83
2019-03-17T05:35:23.351Z,81.69
2019-03-17T05:37:53.744Z,81.92
2019-03-17T05:40:24.092Z,81.91
2019-03-17T05:42:54.521Z,81.81
2019-03-17T05:45:25.149Z,81.83
2019-03-17T05:47:55.565Z,81.67
2019-03-17T05:50:26.171Z,81.65
2019-03-17T05:52:57.534Z,82.21
2019-03-17T05:55:29.386Z,82.43
2019-03-17T05:57:59.849Z,82.10
2019-03-17T06:00:30.450Z,82.23
2019-03-17T06:03:01.046Z,82.15
2019-03-17T06:05:31.509Z,81.58
2019-03-17T06:08:02.173Z,81.83
2019-03-17T06:10:33.068Z,80.95
2019-03-17T06:13:04.129Z,81.34
2019-03-17T06:15:34.624Z,80.63
2019-03-17T06:18:05.114Z,79.29
2019-03-17T06:20:35.575Z,79.40
2019-03-17T06:23:05.892Z,78.84
2019-03-17T06:25:37.695Z,78.43
2019-03-17T06:28:08.105Z,78.95
2019-03-17T06:30:38.465Z,76.73
2019-03-17T06:33:09.276Z,77.63
2019-03-17T06:35:41.321Z,76.29
2019-03-17T06:38:12.283Z,76.82
2019-03-17T06:40:42.656Z,76.91
2019-03-17T06:43:13.353Z,76.65
2019-03-17T06:45:43.809Z,76.08
2019-03-17T06:48:14.328Z,75.61
2019-03-17T06:50:45.013Z,76.20
2019-03-17T06:53:15.667Z,76.18
2019-03-17T06:55:47.225Z,76.14
2019-03-17T06:58:19.416Z,75.56
2019-03-17T07:00:50.313Z,75.86
2019-03-17T07:03:20.685Z,76.15
2019-03-17T07:05:51.224Z,75.34
2019-03-17T07:08:21.978Z,74.25
2019-03-17T07:10:52.508Z,73.92
2019-03-17T07:13:23.043Z,70.39
2019-03-17T07:15:53.513Z,67.60
2019-03-17T07:18:24.191Z,66.24
2019-03-17T07:20:54.684Z,65.73
2019-03-17T07:23:25.077Z,64.90
2019-03-17T07:25:55.510Z,63.89
2019-03-17T07:28:26.146Z,61.98
2019-03-17T07:30:57.005Z,60.11
2019-03-17T07:33:27.510Z,60.23
2019-03-17T07:35:58.207Z,57.75
2019-03-17T07:38:29.997Z,58.94
2019-03-17T07:41:00.815Z,59.38
2019-03-17T07:43:31.896Z,58.83
2019-03-17T07:46:02.605Z,60.41
2019-03-17T07:48:33.574Z,59.26
2019-03-17T07:51:04.244Z,61.71
2019-03-17T07:53:34.910Z,59.96
2019-03-17T07:56:05.641Z,61.69
2019-03-17T07:58:36.124Z,62.22
2019-03-17T08:01:06.498Z,59.23
2019-03-17T08:03:37.303Z,56.11
2019-03-17T08:06:07.928Z,54.39
2019-03-17T08:08:41.191Z,50.59
2019-03-17T08:11:12.011Z,51.28
2019-03-17T08:13:43.723Z,50.25
2019-03-17T08:16:16.336Z,47.87
2019-03-17T08:18:47.333Z,47.87
2019-03-17T08:21:17.861Z,46.62
2019-03-17T08:23:48.874Z,46.62
2019-03-17T08:26:19.307Z,46.47
2019-03-17T08:28:49.980Z,46.35
2019-03-17T08:31:21.241Z,45.84
2019-03-17T08:33:52.149Z,45.81
2019-03-17T08:36:22.643Z,48.22
2019-03-17T08:38:53.123Z,47.88
2019-03-17T08:41:23.559Z,47.74
2019-03-17T08:43:54.744Z,47.07
2019-03-17T08:46:25.836Z,44.81
2019-03-17T08:48:56.375Z,45.15
2019-03-17T08:51:27.030Z,45.56
2019-03-17T08:53:57.603Z,46.00
2019-03-17T08:56:28.375Z,45.70
2019-03-17T08:58:59.309Z,47.18
2019-03-17T09:01:30.419Z,47.22
2019-03-17T09:04:01.353Z,46.64
2019-03-17T09:06:32.441Z,44.33
2019-03-17T09:09:04.633Z,45.70
2019-03-17T09:11:35.432Z,45.42
2019-03-17T09:14:07.647Z,45.02
2019-03-17T09:16:38.701Z,43.12
2019-03-17T09:19:09.917Z,44.29
2019-03-17T09:21:40.299Z,42.26
2019-03-17T09:24:17.028Z,41.01
2019-03-17T09:26:43.505Z,42.49
2019-03-17T09:29:14.452Z,42.29
2019-03-17T09:31:45.357Z,43.61
2019-03-17T09:34:15.867Z,41.99
2019-03-17T09:36:46.448Z,42.06
2019-03-17T09:39:17.086Z,41.95
2019-03-17T09:41:47.568Z,41.82
2019-03-17T09:44:18.320Z,41.54
2019-03-17T09:46:48.751Z,42.29
2019-03-17T09:49:19.189Z,41.82
2019-03-17T09:51:49.779Z,40.38
2019-03-17T09:54:21.608Z,39.31
2019-03-17T09:56:53.610Z,40.63
2019-03-17T09:59:25.148Z,39.55
2019-03-17T10:01:56.953Z,38.42
2019-03-17T10:04:27.359Z,39.90
2019-03-17T10:06:58.044Z,39.77
2019-03-17T10:09:30.103Z,40.49
2019-03-17T10:12:01.328Z,40.42
2019-03-17T10:14:32.450Z,39.28
2019-03-17T10:17:03.167Z,41.20
2019-03-17T10:19:33.963Z,41.72
2019-03-17T10:22:04.892Z,42.29
2019-03-17T10:24:36.380Z,39.39
2019-03-17T10:27:06.992Z,38.70
2019-03-17T10:29:56.110Z,38.16
2019-03-17T10:32:27.076Z,36.47
2019-03-17T10:34:58.376Z,36.88
2019-03-17T10:37:29.140Z,38.12
2019-03-17T10:39:59.985Z,35.46
2019-03-17T10:42:34.081Z,35.58
2019-03-17T10:45:04.599Z,35.95
2019-03-17T10:47:37.100Z,35.06
2019-03-17T10:50:13.654Z,34.43
2019-03-17T10:52:44.394Z,34.79
2019-03-17T10:55:14.972Z,36.35
2019-03-17T10:57:45.764Z,35.73
2019-03-17T11:00:22.133Z,35.14
2019-03-17T11:02:52.618Z,35.11
2019-03-17T11:05:23.165Z,35.98
2019-03-17T11:07:54.158Z,35.10
2019-03-17T11:10:24.585Z,36.42
2019-03-17T11:12:55.420Z,33.93
2019-03-17T11:15:25.992Z,34.72
2019-03-17T11:17:56.651Z,35.54
2019-03-17T11:20:27.172Z,34.57
2019-03-17T11:22:58.028Z,36.49
2019-03-17T11:25:28.724Z,34.88
2019-03-17T11:27:59.528Z,33.86
2019-03-17T11:30:30.020Z,33.93
2019-03-17T11:33:00.448Z,34.51
2019-03-17T11:35:31.160Z,34.79
2019-03-17T11:38:01.593Z,34.51
2019-03-17T11:40:32.232Z,34.30
2019-03-17T11:43:02.760Z,34.83
2019-03-17T11:45:33.254Z,32.68
2019-03-17T11:48:03.718Z,32.80
2019-03-17T11:50:34.311Z,34.23
2019-03-17T11:53:05.241Z,34.11
2019-03-17T11:55:35.909Z,32.89
2019-03-17T11:58:06.996Z,33.56
2019-03-17T12:00:37.685Z,33.15
2019-03-17T12:03:08.242Z,34.74
2019-03-17T12:05:38.796Z,36.11
2019-03-17T12:08:09.204Z,36.04
2019-03-17T12:10:40.126Z,34.85
2019-03-17T12:13:10.634Z,36.25
2019-03-17T12:15:40.995Z,37.19
2019-03-17T12:18:12.838Z,35.84
2019-03-17T12:20:43.457Z,35.86
2019-03-17T12:23:14.050Z,35.81
2019-03-17T12:25:44.749Z,35.92
2019-03-17T12:28:15.436Z,34.51
2019-03-17T12:30:46.337Z,35.26
2019-03-17T12:33:16.866Z,35.54
2019-03-17T12:35:47.346Z,36.42
2019-03-17T12:38:18.107Z,35.88
2019-03-17T12:40:48.888Z,36.55
2019-03-17T12:43:19.393Z,36.09
2019-03-17T12:45:50.178Z,36.90
2019-03-17T12:48:20.714Z,37.65
2019-03-17T12:50:51.435Z,36.60
2019-03-17T12:53:22.616Z,34.60
2019-03-17T12:55:53.154Z,36.28
2019-03-17T12:58:23.924Z,34.61
2019-03-17T13:00:54.697Z,35.21
2019-03-17T13:03:25.202Z,34.54
2019-03-17T13:05:55.863Z,34.90
2019-03-17T13:08:27.800Z,34.13
2019-03-17T13:10:59.089Z,36.24
2019-03-17T13:13:29.920Z,35.50
2019-03-17T13:16:00.312Z,35.21
2019-03-17T13:18:31.005Z,35.72
2019-03-17T13:21:01.701Z,36.14
2019-03-17T13:23:32.386Z,34.52
2019-03-17T13:26:02.976Z,36.28
2019-03-17T13:28:33.610Z,35.12
2019-03-17T13:31:04.912Z,35.42
2019-03-17T13:33:36.551Z,35.41
2019-03-17T13:36:07.076Z,35.63
2019-03-17T13:38:38.006Z,35.91
2019-03-17T13:41:08.686Z,35.41
2019-03-17T13:43:39.217Z,35.64
2019-03-17T13:46:09.883Z,36.14
2019-03-17T13:48:40.349Z,35.39
2019-03-17T13:51:10.761Z,35.89
2019-03-17T13:53:41.551Z,36.27
2019-03-17T13:56:13.607Z,35.50
2019-03-17T13:58:45.501Z,35.29
2019-03-17T14:01:16.089Z,35.73
2019-03-17T14:03:47.795Z,36.22
2019-03-17T14:06:18.482Z,35.44
2019-03-17T14:08:49.282Z,36.05
2019-03-17T14:11:19.653Z,36.34
2019-03-17T14:13:50.511Z,35.49
2019-03-17T14:16:21.020Z,36.67
2019-03-17T14:18:52.016Z,37.35
2019-03-17T14:21:24.521Z,36.68
2019-03-17T14:23:55.370Z,37.64
2019-03-17T14:26:26.976Z,37.76
2019-03-17T14:28:57.651Z,37.92
2019-03-17T14:31:28.074Z,36.99
2019-03-17T14:33:58.977Z,37.01
2019-03-17T14:36:31.528Z,37.23
2019-03-17T14:39:04.311Z,37.96
2019-03-17T14:41:35.966Z,38.05
2019-03-17T14:44:06.813Z,37.54
2019-03-17T14:46:37.484Z,37.75
2019-03-17T14:49:08.118Z,37.95
2019-03-17T14:51:40.190Z,37.90
2019-03-17T14:54:10.709Z,37.81
2019-03-17T14:56:41.053Z,38.02
2019-03-17T14:59:12.541Z,39.31
2019-03-17T15:01:43.328Z,38.60
2019-03-17T15:04:14.194Z,38.15
2019-03-17T15:06:44.701Z,39.43
2019-03-17T15:09:15.156Z,38.27
2019-03-17T15:11:45.662Z,39.92
2019-03-17T15:14:16.290Z,39.55
2019-03-17T15:16:48.327Z,39.07
2019-03-17T15:19:18.815Z,38.61
2019-03-17T15:21:49.216Z,39.45
2019-03-17T15:24:19.586Z,40.21
2019-03-17T15:26:50.256Z,40.41
2019-03-17T15:29:20.871Z,40.37
2019-03-17T15:31:51.649Z,41.10
2019-03-17T15:34:22.862Z,41.80
2019-03-17T15:36:53.763Z,42.15
2019-03-17T15:39:24.426Z,42.65
2019-03-17T15:41:55.031Z,42.27
2019-03-17T15:44:25.504Z,42.74
2019-03-17T15:46:56.225Z,43.55
2019-03-17T15:49:26.836Z,43.72
2019-03-17T15:51:57.677Z,44.53
2019-03-17T15:54:28.478Z,45.19
2019-03-17T15:57:00.477Z,45.73
2019-03-17T15:59:30.898Z,45.85
2019-03-17T16:02:01.628Z,46.82
2019-03-17T16:04:33.121Z,47.48
2019-03-17T16:07:03.614Z,47.70
2019-03-17T16:09:33.953Z,47.82
2019-03-17T16:12:04.761Z,48.36
2019-03-17T16:14:35.249Z,48.57
2019-03-17T16:17:06.146Z,48.77
2019-03-17T16:19:36.615Z,48.94
2019-03-17T16:22:07.416Z,50.53
2019-03-17T16:24:38.301Z,50.81
2019-03-17T16:27:10.499Z,50.71
2019-03-17T16:29:41.287Z,51.55
2019-03-17T16:32:12.242Z,52.04
2019-03-17T16:34:42.935Z,52.43
2019-03-17T16:37:13.652Z,53.14
2019-03-17T16:39:45.338Z,52.33
2019-03-17T16:42:16.196Z,53.22
2019-03-17T16:44:47.095Z,52.12
2019-03-17T16:47:17.512Z,52.08
2019-03-17T16:49:47.961Z,50.75
2019-03-17T16:52:18.829Z,51.32
2019-03-17T16:54:49.398Z,50.87
2019-03-17T16:57:19.884Z,51.65
2019-03-17T16:59:50.403Z,52.09
2019-03-17T17:02:21.277Z,50.54
2019-03-17T17:04:51.771Z,50.28
2019-03-17T17:07:22.403Z,50.28
2019-03-17T17:09:53.179Z,50.88
2019-03-17T17:12:23.738Z,51.86
2019-03-17T17:14:54.260Z,52.90
2019-03-17T17:17:25.486Z,53.62
2019-03-17T17:19:56.314Z,53.62
2019-03-17T17:22:29.069Z,56.89
2019-03-17T17:24:59.875Z,59.49
2019-03-17T17:27:30.618Z,60.88
2019-03-17T17:30:01.965Z,61.06
2019-03-17T17:32:32.992Z,60.01
2019-03-17T17:35:04.423Z,60.88
2019-03-17T17:37:35.216Z,60.44
2019-03-17T17:40:12.976Z,60.54
2019-03-17T17:42:44.206Z,60.27
2019-03-17T17:45:17.014Z,61.63
2019-03-17T17:47:47.777Z,61.65
2019-03-17T17:50:20.752Z,62.58
2019-03-17T17:52:51.639Z,63.40
2019-03-17T17:55:25.287Z,63.67
2019-03-17T17:57:55.961Z,64.16
2019-03-17T18:00:40.520Z,63.76
2019-03-17T18:03:11.712Z,63.75
2019-03-17T18:05:42.288Z,63.56
2019-03-17T18:08:13.027Z,63.99
2019-03-17T18:10:43.797Z,65.14
2019-03-17T18:13:14.842Z,65.09
2019-03-17T18:15:45.328Z,65.71
2019-03-17T18:18:17.201Z,65.72
2019-03-17T18:20:48.121Z,65.67
2019-03-17T18:23:18.731Z,65.90
2019-03-17T18:25:51.690Z,66.04
2019-03-17T18:28:22.395Z,66.57
2019-03-17T18:30:53.110Z,66.16
2019-03-17T18:33:23.783Z,66.09
2019-03-17T18:35:54.280Z,72.20
2019-03-17T18:38:25.806Z,68.21
2019-03-17T18:40:56.593Z,68.73
2019-03-17T18:43:27.075Z,69.08
2019-03-17T18:45:57.583Z,70.42
2019-03-17T18:48:29.337Z,70.93
2019-03-17T18:51:00.082Z,72.12
2019-03-17T18:53:31.341Z,73.56
2019-03-17T18:56:02.037Z,74.07
2019-03-17T18:58:36.687Z,74.72
2019-03-17T19:01:07.136Z,74.67
2019-03-17T19:03:37.959Z,75.89
2019-03-17T19:06:10.572Z,76.72
2019-03-17T19:08:40.922Z,77.26
2019-03-17T19:11:12.129Z,77.81
2019-03-17T19:13:42.825Z,77.91
2019-03-17T19:16:13.439Z,78.11
2019-03-17T19:18:43.861Z,78.45
2019-03-17T19:21:14.265Z,78.60
2019-03-17T19:23:44.883Z,78.99
2019-03-17T19:26:15.655Z,79.28
2019-03-17T19:28:46.344Z,79.38
2019-03-17T19:31:18.495Z,79.31
2019-03-17T19:33:51.768Z,79.13
2019-03-17T19:36:24.435Z,79.56
2019-03-17T19:38:55.200Z,79.85
2019-03-17T19:41:26.630Z,79.89
2019-03-17T19:43:57.405Z,79.99
2019-03-17T19:46:28.059Z,80.41
2019-03-17T19:48:58.693Z,80.34
2019-03-17T19:51:29.267Z,80.29
2019-03-17T19:54:00.323Z,80.45
2019-03-17T19:56:31.494Z,80.84
2019-03-17T19:59:02.046Z,80.63
2019-03-17T20:01:32.598Z,80.69
2019-03-17T20:04:03.072Z,80.65
2019-03-17T20:06:34.186Z,80.36
2019-03-17T20:09:07.491Z,80.59
2019-03-17T20:11:37.889Z,80.42
2019-03-17T20:14:08.557Z,80.32
2019-03-17T20:16:39.562Z,80.62
2019-03-17T20:19:10.067Z,80.59
2019-03-17T20:21:42.190Z,80.46
2019-03-17T20:24:15.534Z,80.43
2019-03-17T20:26:46.006Z,80.20
2019-03-17T20:29:18.219Z,80.39
2019-03-17T20:31:49.082Z,80.56
2019-03-17T20:34:19.953Z,80.66
2019-03-17T20:36:50.706Z,80.51
2019-03-17T20:39:21.332Z,80.64
2019-03-17T20:41:52.206Z,80.78
2019-03-17T20:44:22.632Z,80.69
2019-03-17T20:46:55.383Z,80.55
2019-03-17T20:49:26.700Z,80.36
2019-03-17T20:51:57.221Z,80.57
2019-03-17T20:54:28.061Z,80.39
2019-03-17T20:57:00.726Z,80.51
2019-03-17T20:59:31.252Z,80.25
2019-03-17T21:02:04.113Z,80.45
2019-03-17T21:04:36.307Z,80.23
2019-03-17T21:07:07.026Z,80.26
2019-03-17T21:09:37.856Z,80.33
2019-03-17T21:12:08.347Z,80.51
2019-03-17T21:14:39.051Z,80.37
2019-03-17T21:17:10.207Z,80.68
2019-03-17T21:19:41.223Z,80.50
2019-03-17T21:22:11.560Z,80.49
2019-03-17T21:24:42.583Z,80.16
2019-03-17T21:27:14.664Z,80.35
2019-03-17T21:29:45.169Z,80.21
2019-03-17T21:32:15.514Z,80.17
2019-03-17T21:34:46.019Z,80.07
2019-03-17T21:37:17.199Z,79.96
2019-03-17T21:39:49.190Z,79.85
2019-03-17T21:42:19.619Z,79.96
2019-03-17T21:44:50.217Z,79.93
2019-03-17T21:47:21.835Z,79.67
2019-03-17T21:49:52.830Z,79.68
2019-03-17T21:52:23.866Z,79.81
2019-03-17T21:54:54.365Z,79.59
2019-03-17T21:57:25.011Z,79.56
2019-03-17T21:59:56.541Z,79.47
2019-03-17T22:02:27.144Z,79.43
2019-03-17T22:04:58.046Z,79.43
2019-03-17T22:07:28.653Z,79.41
2019-03-17T22:09:59.707Z,79.31
2019-03-17T22:12:31.442Z,79.26
2019-03-17T22:15:02.078Z,79.09
2019-03-17T22:17:33.360Z,79.24
2019-03-17T22:20:04.840Z,79.00
2019-03-17T22:22:35.405Z,78.84
2019-03-17T22:25:08.507Z,78.68
2019-03-17T22:27:39.054Z,78.85
2019-03-17T22:30:17.806Z,78.99
2019-03-17T22:32:48.414Z,79.02
2019-03-17T22:35:19.246Z,79.08
2019-03-17T22:37:49.785Z,78.98
2019-03-17T22:40:21.444Z,79.09
2019-03-17T22:42:52.653Z,79.10
2019-03-17T22:45:23.179Z,78.98
2019-03-17T22:47:53.897Z,78.82
2019-03-17T22:50:24.540Z,78.63
2019-03-17T22:52:56.671Z,78.84
2019-03-17T22:55:27.213Z,78.60
2019-03-17T22:57:59.222Z,78.59
2019-03-17T23:00:34.492Z,78.72
2019-03-17T23:03:06.948Z,78.67
2019-03-17T23:05:37.406Z,78.84
2019-03-17T23:08:08.198Z,78.66
2019-03-17T23:10:38.660Z,78.72
2019-03-17T23:13:09.028Z,78.98
2019-03-17T23:15:39.733Z,79.16
2019-03-17T23:18:10.502Z,79.21
2019-03-17T23:20:41.329Z,79.33
2019-03-17T23:23:11.868Z,79.17
2019-03-17T23:25:42.218Z,79.25
2019-03-17T23:28:12.666Z,79.32
2019-03-17T23:30:43.625Z,79.50
2019-03-17T23:33:14.418Z,79.66
2019-03-17T23:35:45.893Z,79.76
2019-03-17T23:38:16.165Z,79.53
2019-03-17T23:40:46.662Z,79.43
2019-03-17T23:43:17.117Z,79.42
2019-03-17T23:45:47.641Z,79.37
2019-03-17T23:48:18.364Z,79.38
2019-03-17T23:50:49.353Z,79.12
2019-03-17T23:53:19.865Z,78.94
2019-03-17T23:55:51.948Z,78.62
2019-03-17T23:58:22.550Z,78.69
